sensor_id;sensor_type;location;lat;lon;timestamp;P1;durP1;ratioP1;P2;durP2;ratioP2
51296;SDS011;37380;45.186;9.792;2023-10-09T00:00:20;36.50;;;18.10;;
51296;SDS011;37380;45.186;9.792;2023-10-09T00:03:05;25.55;;;16.88;;
51296;SDS011;37380;45.186;9.792;2023-10-09T00:05:33;32.05;;;17.13;;
51296;SDS011;37380;45.186;9.792;2023-10-09T00:08:14;30.92;;;17.27;;
51296;SDS011;37380;45.186;9.792;2023-10-09T00:10:49;30.13;;;17.92;;
51296;SDS011;37380;45.186;9.792;2023-10-09T00:13:27;35.55;;;19.52;;
51296;SDS011;37380;45.186;9.792;2023-10-09T00:16:28;46.35;;;22.55;;
51296;SDS011;37380;45.186;9.792;2023-10-09T00:19:30;36.72;;;20.77;;
51296;SDS011;37380;45.186;9.792;2023-10-09T00:22:31;39.08;;;21.95;;
51296;SDS011;37380;45.186;9.792;2023-10-09T00:25:30;56.47;;;25.40;;
51296;SDS011;37380;45.186;9.792;2023-10-09T00:28:02;48.05;;;25.17;;
51296;SDS011;37380;45.186;9.792;2023-10-09T00:30:32;42.15;;;24.95;;
51296;SDS011;37380;45.186;9.792;2023-10-09T00:32:59;57.80;;;25.27;;
51296;SDS011;37380;45.186;9.792;2023-10-09T00:35:37;43.72;;;27.90;;
51296;SDS011;37380;45.186;9.792;2023-10-09T00:38:11;39.80;;;26.65;;
51296;SDS011;37380;45.186;9.792;2023-10-09T00:40:50;39.58;;;25.67;;
51296;SDS011;37380;45.186;9.792;2023-10-09T00:43:38;42.22;;;26.08;;
51296;SDS011;37380;45.186;9.792;2023-10-09T00:46:09;57.50;;;26.67;;
51296;SDS011;37380;45.186;9.792;2023-10-09T00:48:58;32.63;;;24.13;;
51296;SDS011;37380;45.186;9.792;2023-10-09T00:51:29;50.25;;;26.95;;
51296;SDS011;37380;45.186;9.792;2023-10-09T00:54:04;40.63;;;24.13;;
51296;SDS011;37380;45.186;9.792;2023-10-09T00:56:42;41.92;;;24.67;;
51296;SDS011;37380;45.186;9.792;2023-10-09T00:59:19;47.58;;;23.88;;
51296;SDS011;37380;45.186;9.792;2023-10-09T01:01:48;41.97;;;26.83;;
51296;SDS011;37380;45.186;9.792;2023-10-09T01:04:38;43.75;;;23.10;;
51296;SDS011;37380;45.186;9.792;2023-10-09T01:07:39;40.40;;;24.38;;
51296;SDS011;37380;45.186;9.792;2023-10-09T01:10:43;44.47;;;24.13;;
51296;SDS011;37380;45.186;9.792;2023-10-09T01:13:29;46.17;;;25.55;;
51296;SDS011;37380;45.186;9.792;2023-10-09T01:16:45;36.95;;;24.67;;
51296;SDS011;37380;45.186;9.792;2023-10-09T01:19:48;47.05;;;23.88;;
51296;SDS011;37380;45.186;9.792;2023-10-09T01:22:42;54.33;;;26.88;;
51296;SDS011;37380;45.186;9.792;2023-10-09T01:25:37;42.58;;;25.77;;
51296;SDS011;37380;45.186;9.792;2023-10-09T01:28:12;40.30;;;26.17;;
51296;SDS011;37380;45.186;9.792;2023-10-09T01:30:42;36.00;;;25.55;;
51296;SDS011;37380;45.186;9.792;2023-10-09T01:33:10;33.13;;;25.83;;
51296;SDS011;37380;45.186;9.792;2023-10-09T01:35:50;55.30;;;25.75;;
51296;SDS011;37380;45.186;9.792;2023-10-09T01:38:22;38.13;;;26.25;;
51296;SDS011;37380;45.186;9.792;2023-10-09T01:41:11;45.25;;;26.55;;
51296;SDS011;37380;45.186;9.792;2023-10-09T01:43:46;51.25;;;28.08;;
51296;SDS011;37380;45.186;9.792;2023-10-09T01:46:17;38.55;;;27.65;;
51296;SDS011;37380;45.186;9.792;2023-10-09T01:48:46;38.10;;;24.55;;
51296;SDS011;37380;45.186;9.792;2023-10-09T01:51:14;36.58;;;26.17;;
51296;SDS011;37380;45.186;9.792;2023-10-09T01:53:44;40.30;;;24.42;;
51296;SDS011;37380;45.186;9.792;2023-10-09T01:56:14;37.63;;;25.83;;
51296;SDS011;37380;45.186;9.792;2023-10-09T01:58:42;42.65;;;23.73;;
51296;SDS011;37380;45.186;9.792;2023-10-09T02:01:13;46.97;;;27.13;;
51296;SDS011;37380;45.186;9.792;2023-10-09T02:03:42;44.53;;;25.95;;
51296;SDS011;37380;45.186;9.792;2023-10-09T02:06:10;33.55;;;24.27;;
51296;SDS011;37380;45.186;9.792;2023-10-09T02:08:59;37.97;;;24.08;;
51296;SDS011;37380;45.186;9.792;2023-10-09T02:11:32;37.67;;;23.52;;
51296;SDS011;37380;45.186;9.792;2023-10-09T02:14:34;39.22;;;27.13;;
51296;SDS011;37380;45.186;9.792;2023-10-09T02:17:35;47.40;;;24.30;;
51296;SDS011;37380;45.186;9.792;2023-10-09T02:20:48;45.10;;;24.23;;
51296;SDS011;37380;45.186;9.792;2023-10-09T02:23:49;43.58;;;24.65;;
51296;SDS011;37380;45.186;9.792;2023-10-09T02:26:17;47.47;;;25.42;;
51296;SDS011;37380;45.186;9.792;2023-10-09T02:28:52;33.28;;;23.80;;
51296;SDS011;37380;45.186;9.792;2023-10-09T02:31:31;42.60;;;23.60;;
51296;SDS011;37380;45.186;9.792;2023-10-09T02:34:08;32.42;;;20.58;;
51296;SDS011;37380;45.186;9.792;2023-10-09T02:36:35;30.77;;;19.17;;
51296;SDS011;37380;45.186;9.792;2023-10-09T02:39:12;50.90;;;21.38;;
51296;SDS011;37380;45.186;9.792;2023-10-09T02:41:53;34.92;;;20.95;;
51296;SDS011;37380;45.186;9.792;2023-10-09T02:44:28;45.17;;;20.40;;
51296;SDS011;37380;45.186;9.792;2023-10-09T02:47:07;48.63;;;21.08;;
51296;SDS011;37380;45.186;9.792;2023-10-09T02:49:45;37.88;;;21.08;;
51296;SDS011;37380;45.186;9.792;2023-10-09T02:52:15;33.17;;;20.02;;
51296;SDS011;37380;45.186;9.792;2023-10-09T02:54:46;41.13;;;20.67;;
51296;SDS011;37380;45.186;9.792;2023-10-09T02:57:14;30.52;;;22.02;;
51296;SDS011;37380;45.186;9.792;2023-10-09T02:59:51;34.22;;;18.33;;
51296;SDS011;37380;45.186;9.792;2023-10-09T03:02:18;37.08;;;19.98;;
51296;SDS011;37380;45.186;9.792;2023-10-09T03:04:46;35.78;;;18.10;;
51296;SDS011;37380;45.186;9.792;2023-10-09T03:07:13;39.70;;;17.73;;
51296;SDS011;37380;45.186;9.792;2023-10-09T03:09:40;39.20;;;15.95;;
51296;SDS011;37380;45.186;9.792;2023-10-09T03:12:14;38.15;;;15.93;;
51296;SDS011;37380;45.186;9.792;2023-10-09T03:15:20;38.30;;;15.27;;
51296;SDS011;37380;45.186;9.792;2023-10-09T03:18:22;37.85;;;14.55;;
51296;SDS011;37380;45.186;9.792;2023-10-09T03:21:16;38.85;;;14.77;;
51296;SDS011;37380;45.186;9.792;2023-10-09T03:23:47;43.85;;;14.88;;
51296;SDS011;37380;45.186;9.792;2023-10-09T03:26:18;40.22;;;14.70;;
51296;SDS011;37380;45.186;9.792;2023-10-09T03:28:48;42.65;;;15.25;;
51296;SDS011;37380;45.186;9.792;2023-10-09T03:31:16;30.90;;;13.75;;
51296;SDS011;37380;45.186;9.792;2023-10-09T03:33:43;23.38;;;12.70;;
51296;SDS011;37380;45.186;9.792;2023-10-09T03:36:10;37.58;;;15.30;;
51296;SDS011;37380;45.186;9.792;2023-10-09T03:38:38;34.63;;;14.57;;
51296;SDS011;37380;45.186;9.792;2023-10-09T03:41:06;24.77;;;13.43;;
51296;SDS011;37380;45.186;9.792;2023-10-09T03:43:36;25.60;;;12.80;;
51296;SDS011;37380;45.186;9.792;2023-10-09T03:46:08;34.72;;;13.48;;
51296;SDS011;37380;45.186;9.792;2023-10-09T03:48:59;23.52;;;13.35;;
51296;SDS011;37380;45.186;9.792;2023-10-09T03:51:37;25.83;;;11.82;;
51296;SDS011;37380;45.186;9.792;2023-10-09T03:54:06;25.92;;;12.73;;
51296;SDS011;37380;45.186;9.792;2023-10-09T03:56:35;29.50;;;11.40;;
51296;SDS011;37380;45.186;9.792;2023-10-09T03:59:02;22.20;;;12.35;;
51296;SDS011;37380;45.186;9.792;2023-10-09T04:01:31;32.65;;;12.48;;
51296;SDS011;37380;45.186;9.792;2023-10-09T04:04:05;24.30;;;12.65;;
51296;SDS011;37380;45.186;9.792;2023-10-09T04:06:41;38.55;;;12.05;;
51296;SDS011;37380;45.186;9.792;2023-10-09T04:09:11;32.70;;;12.18;;
51296;SDS011;37380;45.186;9.792;2023-10-09T04:11:54;33.08;;;12.95;;
51296;SDS011;37380;45.186;9.792;2023-10-09T04:15:04;28.08;;;13.40;;
51296;SDS011;37380;45.186;9.792;2023-10-09T04:18:08;31.75;;;11.50;;
51296;SDS011;37380;45.186;9.792;2023-10-09T04:21:09;31.10;;;12.93;;
51296;SDS011;37380;45.186;9.792;2023-10-09T04:24:06;26.48;;;13.98;;
51296;SDS011;37380;45.186;9.792;2023-10-09T04:26:38;23.73;;;12.75;;
51296;SDS011;37380;45.186;9.792;2023-10-09T04:29:14;27.17;;;12.38;;
51296;SDS011;37380;45.186;9.792;2023-10-09T04:31:56;39.10;;;12.80;;
51296;SDS011;37380;45.186;9.792;2023-10-09T04:36:57;24.63;;;12.38;;
51296;SDS011;37380;45.186;9.792;2023-10-09T04:39:27;29.88;;;14.02;;
51296;SDS011;37380;45.186;9.792;2023-10-09T04:41:57;26.00;;;13.45;;
51296;SDS011;37380;45.186;9.792;2023-10-09T04:44:44;25.38;;;13.25;;
51296;SDS011;37380;45.186;9.792;2023-10-09T04:47:33;32.40;;;15.27;;
51296;SDS011;37380;45.186;9.792;2023-10-09T04:50:05;26.75;;;12.52;;
51296;SDS011;37380;45.186;9.792;2023-10-09T04:52:48;28.65;;;13.82;;
51296;SDS011;37380;45.186;9.792;2023-10-09T04:55:42;35.95;;;15.18;;
51296;SDS011;37380;45.186;9.792;2023-10-09T04:58:24;25.55;;;15.57;;
51296;SDS011;37380;45.186;9.792;2023-10-09T05:00:53;31.42;;;15.38;;
51296;SDS011;37380;45.186;9.792;2023-10-09T05:03:24;34.55;;;16.80;;
51296;SDS011;37380;45.186;9.792;2023-10-09T05:05:55;29.35;;;15.55;;
51296;SDS011;37380;45.186;9.792;2023-10-09T05:08:26;28.52;;;15.80;;
51296;SDS011;37380;45.186;9.792;2023-10-09T05:11:01;28.42;;;16.48;;
51296;SDS011;37380;45.186;9.792;2023-10-09T05:13:55;28.70;;;16.30;;
51296;SDS011;37380;45.186;9.792;2023-10-09T05:17:06;27.35;;;16.23;;
51296;SDS011;37380;45.186;9.792;2023-10-09T05:20:09;23.92;;;15.98;;
51296;SDS011;37380;45.186;9.792;2023-10-09T05:23:12;28.55;;;14.68;;
51296;SDS011;37380;45.186;9.792;2023-10-09T05:26:00;37.10;;;17.67;;
51296;SDS011;37380;45.186;9.792;2023-10-09T05:28:47;34.30;;;16.00;;
51296;SDS011;37380;45.186;9.792;2023-10-09T05:31:19;25.45;;;14.45;;
51296;SDS011;37380;45.186;9.792;2023-10-09T05:34:05;28.63;;;15.60;;
51296;SDS011;37380;45.186;9.792;2023-10-09T05:36:33;30.77;;;16.13;;
51296;SDS011;37380;45.186;9.792;2023-10-09T05:39:02;36.72;;;15.45;;
51296;SDS011;37380;45.186;9.792;2023-10-09T05:42:08;30.60;;;14.55;;
51296;SDS011;37380;45.186;9.792;2023-10-09T05:44:45;23.95;;;13.73;;
51296;SDS011;37380;45.186;9.792;2023-10-09T05:47:31;21.90;;;13.10;;
51296;SDS011;37380;45.186;9.792;2023-10-09T05:50:05;45.72;;;15.00;;
51296;SDS011;37380;45.186;9.792;2023-10-09T05:53:09;30.58;;;15.02;;
51296;SDS011;37380;45.186;9.792;2023-10-09T05:56:25;41.38;;;16.52;;
51296;SDS011;37380;45.186;9.792;2023-10-09T05:58:58;31.67;;;13.95;;
51296;SDS011;37380;45.186;9.792;2023-10-09T06:01:44;29.08;;;16.63;;
51296;SDS011;37380;45.186;9.792;2023-10-09T06:04:17;37.87;;;15.57;;
51296;SDS011;37380;45.186;9.792;2023-10-09T06:06:53;33.30;;;15.35;;
51296;SDS011;37380;45.186;9.792;2023-10-09T06:10:04;36.03;;;16.80;;
51296;SDS011;37380;45.186;9.792;2023-10-09T06:13:25;37.78;;;16.05;;
51296;SDS011;37380;45.186;9.792;2023-10-09T06:16:34;31.98;;;15.43;;
51296;SDS011;37380;45.186;9.792;2023-10-09T06:19:37;19.83;;;15.47;;
51296;SDS011;37380;45.186;9.792;2023-10-09T06:22:16;38.63;;;16.60;;
51296;SDS011;37380;45.186;9.792;2023-10-09T06:25:01;25.83;;;15.80;;
51296;SDS011;37380;45.186;9.792;2023-10-09T06:27:39;30.52;;;17.60;;
51296;SDS011;37380;45.186;9.792;2023-10-09T06:30:09;24.60;;;16.35;;
51296;SDS011;37380;45.186;9.792;2023-10-09T06:32:40;32.60;;;16.77;;
51296;SDS011;37380;45.186;9.792;2023-10-09T06:35:26;27.77;;;15.70;;
51296;SDS011;37380;45.186;9.792;2023-10-09T06:38:00;30.00;;;16.52;;
51296;SDS011;37380;45.186;9.792;2023-10-09T06:40:30;36.40;;;15.68;;
51296;SDS011;37380;45.186;9.792;2023-10-09T06:43:17;38.67;;;16.77;;
51296;SDS011;37380;45.186;9.792;2023-10-09T06:46:00;45.17;;;16.15;;
51296;SDS011;37380;45.186;9.792;2023-10-09T06:49:12;36.30;;;14.52;;
51296;SDS011;37380;45.186;9.792;2023-10-09T06:51:55;28.90;;;13.50;;
51296;SDS011;37380;45.186;9.792;2023-10-09T06:54:40;37.22;;;17.27;;
51296;SDS011;37380;45.186;9.792;2023-10-09T06:57:16;29.58;;;15.27;;
51296;SDS011;37380;45.186;9.792;2023-10-09T07:00:05;30.77;;;14.75;;
51296;SDS011;37380;45.186;9.792;2023-10-09T07:02:51;36.97;;;14.95;;
51296;SDS011;37380;45.186;9.792;2023-10-09T07:05:20;28.75;;;15.27;;
51296;SDS011;37380;45.186;9.792;2023-10-09T07:07:53;28.42;;;15.43;;
51296;SDS011;37380;45.186;9.792;2023-10-09T07:11:14;27.55;;;15.40;;
51296;SDS011;37380;45.186;9.792;2023-10-09T07:14:28;24.23;;;13.50;;
51296;SDS011;37380;45.186;9.792;2023-10-09T07:17:45;39.15;;;15.55;;
51296;SDS011;37380;45.186;9.792;2023-10-09T07:20:40;26.75;;;13.98;;
51296;SDS011;37380;45.186;9.792;2023-10-09T07:23:12;38.08;;;16.23;;
51296;SDS011;37380;45.186;9.792;2023-10-09T07:25:42;31.02;;;13.35;;
51296;SDS011;37380;45.186;9.792;2023-10-09T07:28:22;33.65;;;15.77;;
51296;SDS011;37380;45.186;9.792;2023-10-09T07:30:56;28.67;;;13.40;;
51296;SDS011;37380;45.186;9.792;2023-10-09T07:33:26;31.20;;;13.73;;
51296;SDS011;37380;45.186;9.792;2023-10-09T07:36:13;34.33;;;12.48;;
51296;SDS011;37380;45.186;9.792;2023-10-09T07:38:41;25.67;;;12.73;;
51296;SDS011;37380;45.186;9.792;2023-10-09T07:41:17;24.23;;;12.88;;
51296;SDS011;37380;45.186;9.792;2023-10-09T07:44:41;34.05;;;13.13;;
51296;SDS011;37380;45.186;9.792;2023-10-09T07:47:24;25.00;;;13.30;;
51296;SDS011;37380;45.186;9.792;2023-10-09T07:50:17;22.33;;;11.90;;
51296;SDS011;37380;45.186;9.792;2023-10-09T07:53:17;25.10;;;13.10;;
51296;SDS011;37380;45.186;9.792;2023-10-09T07:55:53;35.70;;;12.85;;
51296;SDS011;37380;45.186;9.792;2023-10-09T07:58:33;28.33;;;13.52;;
51296;SDS011;37380;45.186;9.792;2023-10-09T08:01:13;17.17;;;12.32;;
51296;SDS011;37380;45.186;9.792;2023-10-09T08:03:49;31.73;;;13.15;;
51296;SDS011;37380;45.186;9.792;2023-10-09T08:06:32;25.40;;;12.13;;
51296;SDS011;37380;45.186;9.792;2023-10-09T08:09:06;33.17;;;13.68;;
51296;SDS011;37380;45.186;9.792;2023-10-09T08:12:02;30.65;;;13.48;;
51296;SDS011;37380;45.186;9.792;2023-10-09T08:15:24;22.17;;;13.13;;
51296;SDS011;37380;45.186;9.792;2023-10-09T08:18:44;31.20;;;15.05;;
51296;SDS011;37380;45.186;9.792;2023-10-09T08:21:47;44.40;;;14.50;;
51296;SDS011;37380;45.186;9.792;2023-10-09T08:25:18;22.55;;;13.60;;
51296;SDS011;37380;45.186;9.792;2023-10-09T08:27:56;25.85;;;14.40;;
51296;SDS011;37380;45.186;9.792;2023-10-09T08:30:25;33.03;;;14.60;;
51296;SDS011;37380;45.186;9.792;2023-10-09T08:32:54;33.45;;;13.45;;
51296;SDS011;37380;45.186;9.792;2023-10-09T08:35:31;22.42;;;12.98;;
51296;SDS011;37380;45.186;9.792;2023-10-09T08:38:01;36.97;;;14.95;;
51296;SDS011;37380;45.186;9.792;2023-10-09T08:40:41;26.42;;;14.75;;
51296;SDS011;37380;45.186;9.792;2023-10-09T08:43:37;22.00;;;13.25;;
51296;SDS011;37380;45.186;9.792;2023-10-09T08:46:08;32.50;;;12.00;;
51296;SDS011;37380;45.186;9.792;2023-10-09T08:48:35;27.98;;;12.27;;
51296;SDS011;37380;45.186;9.792;2023-10-09T08:51:06;25.15;;;10.80;;
51296;SDS011;37380;45.186;9.792;2023-10-09T08:53:33;31.50;;;11.68;;
51296;SDS011;37380;45.186;9.792;2023-10-09T08:56:01;25.30;;;10.40;;
51296;SDS011;37380;45.186;9.792;2023-10-09T08:58:30;33.10;;;9.55;;
51296;SDS011;37380;45.186;9.792;2023-10-09T09:01:03;16.27;;;9.95;;
51296;SDS011;37380;45.186;9.792;2023-10-09T09:03:41;22.80;;;9.75;;
51296;SDS011;37380;45.186;9.792;2023-10-09T09:06:12;27.05;;;10.40;;
51296;SDS011;37380;45.186;9.792;2023-10-09T09:08:42;32.65;;;9.85;;
51296;SDS011;37380;45.186;9.792;2023-10-09T09:11:12;26.25;;;9.00;;
51296;SDS011;37380;45.186;9.792;2023-10-09T09:16:57;23.40;;;8.13;;
51296;SDS011;37380;45.186;9.792;2023-10-09T09:19:52;24.77;;;9.43;;
51296;SDS011;37380;45.186;9.792;2023-10-09T09:22:25;25.73;;;9.50;;
51296;SDS011;37380;45.186;9.792;2023-10-09T09:25:20;32.63;;;8.18;;
51296;SDS011;37380;45.186;9.792;2023-10-09T09:27:51;23.92;;;9.10;;
51296;SDS011;37380;45.186;9.792;2023-10-09T09:30:32;22.98;;;7.38;;
51296;SDS011;37380;45.186;9.792;2023-10-09T09:33:34;49.53;;;7.63;;
51296;SDS011;37380;45.186;9.792;2023-10-09T09:36:00;29.10;;;7.60;;
51296;SDS011;37380;45.186;9.792;2023-10-09T09:38:35;37.80;;;7.50;;
51296;SDS011;37380;45.186;9.792;2023-10-09T09:41:39;21.40;;;7.22;;
51296;SDS011;37380;45.186;9.792;2023-10-09T09:44:07;28.23;;;7.57;;
51296;SDS011;37380;45.186;9.792;2023-10-09T09:46:34;27.50;;;6.60;;
51296;SDS011;37380;45.186;9.792;2023-10-09T09:49:04;20.80;;;4.65;;
51296;SDS011;37380;45.186;9.792;2023-10-09T09:51:32;20.63;;;5.93;;
51296;SDS011;37380;45.186;9.792;2023-10-09T09:54:04;26.30;;;5.15;;
51296;SDS011;37380;45.186;9.792;2023-10-09T09:56:37;31.02;;;6.53;;
51296;SDS011;37380;45.186;9.792;2023-10-09T09:59:07;13.13;;;5.18;;
51296;SDS011;37380;45.186;9.792;2023-10-09T10:01:40;28.67;;;6.90;;
51296;SDS011;37380;45.186;9.792;2023-10-09T10:04:09;18.05;;;4.45;;
51296;SDS011;37380;45.186;9.792;2023-10-09T10:07:06;32.40;;;5.88;;
51296;SDS011;37380;45.186;9.792;2023-10-09T10:10:03;22.60;;;5.40;;
51296;SDS011;37380;45.186;9.792;2023-10-09T10:13:54;13.02;;;4.63;;
51296;SDS011;37380;45.186;9.792;2023-10-09T10:17:15;18.80;;;5.20;;
51296;SDS011;37380;45.186;9.792;2023-10-09T10:20:08;19.30;;;5.30;;
51296;SDS011;37380;45.186;9.792;2023-10-09T10:22:45;32.05;;;7.45;;
51296;SDS011;37380;45.186;9.792;2023-10-09T10:28:17;20.50;;;5.38;;
51296;SDS011;37380;45.186;9.792;2023-10-09T10:30:55;20.17;;;4.53;;
51296;SDS011;37380;45.186;9.792;2023-10-09T10:33:27;26.17;;;6.22;;
51296;SDS011;37380;45.186;9.792;2023-10-09T10:36:29;32.08;;;7.45;;
51296;SDS011;37380;45.186;9.792;2023-10-09T10:39:29;27.15;;;5.40;;
51296;SDS011;37380;45.186;9.792;2023-10-09T10:42:14;16.25;;;5.55;;
51296;SDS011;37380;45.186;9.792;2023-10-09T10:45:01;31.95;;;6.13;;
51296;SDS011;37380;45.186;9.792;2023-10-09T10:47:29;33.70;;;6.70;;
51296;SDS011;37380;45.186;9.792;2023-10-09T10:50:01;33.70;;;5.25;;
51296;SDS011;37380;45.186;9.792;2023-10-09T10:56:00;31.90;;;6.38;;
51296;SDS011;37380;45.186;9.792;2023-10-09T10:58:54;24.05;;;6.65;;
51296;SDS011;37380;45.186;9.792;2023-10-09T11:01:30;16.95;;;5.80;;
51296;SDS011;37380;45.186;9.792;2023-10-09T11:04:17;24.80;;;4.80;;
51296;SDS011;37380;45.186;9.792;2023-10-09T11:06:51;15.15;;;5.70;;
51296;SDS011;37380;45.186;9.792;2023-10-09T11:09:26;22.38;;;6.75;;
51296;SDS011;37380;45.186;9.792;2023-10-09T11:15:46;34.35;;;5.68;;
51296;SDS011;37380;45.186;9.792;2023-10-09T11:19:11;19.13;;;6.25;;
51296;SDS011;37380;45.186;9.792;2023-10-09T11:22:15;27.37;;;4.43;;
51296;SDS011;37380;45.186;9.792;2023-10-09T11:25:03;28.08;;;6.75;;
51296;SDS011;37380;45.186;9.792;2023-10-09T11:27:39;24.90;;;6.78;;
51296;SDS011;37380;45.186;9.792;2023-10-09T11:30:17;15.02;;;5.30;;
51296;SDS011;37380;45.186;9.792;2023-10-09T11:33:03;25.92;;;5.78;;
51296;SDS011;37380;45.186;9.792;2023-10-09T11:35:31;27.95;;;6.00;;
51296;SDS011;37380;45.186;9.792;2023-10-09T11:38:01;19.75;;;5.05;;
51296;SDS011;37380;45.186;9.792;2023-10-09T11:40:54;49.88;;;5.60;;
51296;SDS011;37380;45.186;9.792;2023-10-09T11:43:54;10.52;;;3.55;;
51296;SDS011;37380;45.186;9.792;2023-10-09T11:46:24;21.20;;;4.78;;
51296;SDS011;37380;45.186;9.792;2023-10-09T11:49:11;12.88;;;5.22;;
51296;SDS011;37380;45.186;9.792;2023-10-09T11:51:54;24.63;;;5.38;;
51296;SDS011;37380;45.186;9.792;2023-10-09T11:55:06;19.67;;;6.25;;
51296;SDS011;37380;45.186;9.792;2023-10-09T11:58:06;15.38;;;5.15;;
51296;SDS011;37380;45.186;9.792;2023-10-09T12:00:35;11.27;;;4.80;;
51296;SDS011;37380;45.186;9.792;2023-10-09T12:03:13;46.72;;;5.82;;
51296;SDS011;37380;45.186;9.792;2023-10-09T12:05:48;19.08;;;5.30;;
51296;SDS011;37380;45.186;9.792;2023-10-09T12:08:50;24.85;;;5.43;;
51296;SDS011;37380;45.186;9.792;2023-10-09T12:11:52;10.38;;;3.60;;
51296;SDS011;37380;45.186;9.792;2023-10-09T12:14:47;26.20;;;6.28;;
51296;SDS011;37380;45.186;9.792;2023-10-09T12:17:45;24.02;;;4.97;;
51296;SDS011;37380;45.186;9.792;2023-10-09T12:20:41;19.65;;;6.47;;
51296;SDS011;37380;45.186;9.792;2023-10-09T12:23:09;16.85;;;5.22;;
51296;SDS011;37380;45.186;9.792;2023-10-09T12:25:41;25.17;;;5.93;;
51296;SDS011;37380;45.186;9.792;2023-10-09T12:28:12;18.38;;;5.38;;
51296;SDS011;37380;45.186;9.792;2023-10-09T12:30:39;21.25;;;4.95;;
51296;SDS011;37380;45.186;9.792;2023-10-09T12:33:08;26.33;;;5.63;;
51296;SDS011;37380;45.186;9.792;2023-10-09T12:35:36;25.02;;;5.15;;
51296;SDS011;37380;45.186;9.792;2023-10-09T12:38:05;13.90;;;4.68;;
51296;SDS011;37380;45.186;9.792;2023-10-09T12:40:42;20.75;;;5.40;;
51296;SDS011;37380;45.186;9.792;2023-10-09T12:43:46;12.88;;;4.70;;
51296;SDS011;37380;45.186;9.792;2023-10-09T12:46:48;28.08;;;4.97;;
51296;SDS011;37380;45.186;9.792;2023-10-09T12:49:50;23.17;;;6.50;;
51296;SDS011;37380;45.186;9.792;2023-10-09T12:52:51;16.55;;;5.00;;
51296;SDS011;37380;45.186;9.792;2023-10-09T12:56:00;19.55;;;5.05;;
51296;SDS011;37380;45.186;9.792;2023-10-09T12:59:01;24.48;;;4.95;;
51296;SDS011;37380;45.186;9.792;2023-10-09T13:02:01;26.88;;;5.82;;
51296;SDS011;37380;45.186;9.792;2023-10-09T13:04:32;22.77;;;5.03;;
51296;SDS011;37380;45.186;9.792;2023-10-09T13:07:01;9.98;;;3.92;;
51296;SDS011;37380;45.186;9.792;2023-10-09T13:09:58;21.90;;;5.45;;
51296;SDS011;37380;45.186;9.792;2023-10-09T13:12:55;25.13;;;5.53;;
51296;SDS011;37380;45.186;9.792;2023-10-09T13:15:29;25.42;;;5.72;;
51296;SDS011;37380;45.186;9.792;2023-10-09T13:18:36;18.20;;;5.68;;
51296;SDS011;37380;45.186;9.792;2023-10-09T13:21:28;11.02;;;4.25;;
51296;SDS011;37380;45.186;9.792;2023-10-09T13:24:01;27.77;;;5.30;;
51296;SDS011;37380;45.186;9.792;2023-10-09T13:26:30;19.77;;;5.20;;
51296;SDS011;37380;45.186;9.792;2023-10-09T13:29:00;19.90;;;5.40;;
51296;SDS011;37380;45.186;9.792;2023-10-09T13:31:29;25.50;;;5.28;;
51296;SDS011;37380;45.186;9.792;2023-10-09T13:34:02;25.50;;;3.72;;
51296;SDS011;37380;45.186;9.792;2023-10-09T13:36:30;30.60;;;5.20;;
51296;SDS011;37380;45.186;9.792;2023-10-09T13:39:02;30.58;;;5.63;;
51296;SDS011;37380;45.186;9.792;2023-10-09T13:41:57;27.33;;;4.47;;
51296;SDS011;37380;45.186;9.792;2023-10-09T13:45:04;39.35;;;5.85;;
51296;SDS011;37380;45.186;9.792;2023-10-09T13:48:09;16.75;;;5.88;;
51296;SDS011;37380;45.186;9.792;2023-10-09T13:51:11;20.45;;;4.65;;
51296;SDS011;37380;45.186;9.792;2023-10-09T13:54:13;21.13;;;6.07;;
51296;SDS011;37380;45.186;9.792;2023-10-09T13:57:16;18.85;;;5.88;;
51296;SDS011;37380;45.186;9.792;2023-10-09T14:00:18;24.55;;;5.13;;
51296;SDS011;37380;45.186;9.792;2023-10-09T14:03:02;21.17;;;5.32;;
51296;SDS011;37380;45.186;9.792;2023-10-09T14:05:39;33.55;;;6.65;;
51296;SDS011;37380;45.186;9.792;2023-10-09T14:08:25;31.90;;;5.97;;
51296;SDS011;37380;45.186;9.792;2023-10-09T14:11:19;19.25;;;4.95;;
51296;SDS011;37380;45.186;9.792;2023-10-09T14:13:46;18.20;;;4.97;;
51296;SDS011;37380;45.186;9.792;2023-10-09T14:16:38;26.65;;;5.97;;
51296;SDS011;37380;45.186;9.792;2023-10-09T14:19:33;22.13;;;4.82;;
51296;SDS011;37380;45.186;9.792;2023-10-09T14:22:00;20.23;;;5.13;;
51296;SDS011;37380;45.186;9.792;2023-10-09T14:24:31;43.13;;;5.68;;
51296;SDS011;37380;45.186;9.792;2023-10-09T14:27:03;19.88;;;5.20;;
51296;SDS011;37380;45.186;9.792;2023-10-09T14:29:31;21.05;;;5.82;;
51296;SDS011;37380;45.186;9.792;2023-10-09T14:31:58;28.65;;;6.38;;
51296;SDS011;37380;45.186;9.792;2023-10-09T14:34:28;12.60;;;4.55;;
51296;SDS011;37380;45.186;9.792;2023-10-09T14:37:03;17.23;;;5.38;;
51296;SDS011;37380;45.186;9.792;2023-10-09T14:39:35;29.17;;;6.90;;
51296;SDS011;37380;45.186;9.792;2023-10-09T14:42:10;21.63;;;5.38;;
51296;SDS011;37380;45.186;9.792;2023-10-09T14:45:11;33.22;;;6.05;;
51296;SDS011;37380;45.186;9.792;2023-10-09T14:48:12;21.50;;;5.45;;
51296;SDS011;37380;45.186;9.792;2023-10-09T14:51:09;16.15;;;4.78;;
51296;SDS011;37380;45.186;9.792;2023-10-09T14:53:40;23.90;;;5.07;;
51296;SDS011;37380;45.186;9.792;2023-10-09T14:56:07;24.58;;;6.25;;
51296;SDS011;37380;45.186;9.792;2023-10-09T14:58:43;30.90;;;5.47;;
51296;SDS011;37380;45.186;9.792;2023-10-09T15:01:13;13.48;;;5.35;;
51296;SDS011;37380;45.186;9.792;2023-10-09T15:03:45;16.58;;;5.45;;
51296;SDS011;37380;45.186;9.792;2023-10-09T15:06:14;22.63;;;6.05;;
51296;SDS011;37380;45.186;9.792;2023-10-09T15:08:48;18.40;;;5.75;;
51296;SDS011;37380;45.186;9.792;2023-10-09T15:11:49;27.52;;;6.15;;
51296;SDS011;37380;45.186;9.792;2023-10-09T15:14:50;28.15;;;6.05;;
51296;SDS011;37380;45.186;9.792;2023-10-09T15:17:51;39.70;;;6.18;;
51296;SDS011;37380;45.186;9.792;2023-10-09T15:20:45;49.75;;;6.13;;
51296;SDS011;37380;45.186;9.792;2023-10-09T15:23:13;33.33;;;6.57;;
51296;SDS011;37380;45.186;9.792;2023-10-09T15:25:40;33.67;;;5.45;;
51296;SDS011;37380;45.186;9.792;2023-10-09T15:28:11;34.20;;;6.35;;
51296;SDS011;37380;45.186;9.792;2023-10-09T15:30:39;29.75;;;5.88;;
51296;SDS011;37380;45.186;9.792;2023-10-09T15:33:07;26.50;;;7.13;;
51296;SDS011;37380;45.186;9.792;2023-10-09T15:35:35;30.08;;;6.60;;
51296;SDS011;37380;45.186;9.792;2023-10-09T15:38:03;20.10;;;5.68;;
51296;SDS011;37380;45.186;9.792;2023-10-09T15:40:30;37.85;;;7.18;;
51296;SDS011;37380;45.186;9.792;2023-10-09T15:43:01;25.35;;;6.57;;
51296;SDS011;37380;45.186;9.792;2023-10-09T15:45:31;24.02;;;7.43;;
51296;SDS011;37380;45.186;9.792;2023-10-09T15:47:58;31.17;;;6.68;;
51296;SDS011;37380;45.186;9.792;2023-10-09T15:50:26;34.15;;;7.60;;
51296;SDS011;37380;45.186;9.792;2023-10-09T15:52:54;29.10;;;6.70;;
51296;SDS011;37380;45.186;9.792;2023-10-09T15:55:28;15.68;;;5.80;;
51296;SDS011;37380;45.186;9.792;2023-10-09T15:58:24;19.98;;;6.18;;
51296;SDS011;37380;45.186;9.792;2023-10-09T16:00:51;17.60;;;5.85;;
51296;SDS011;37380;45.186;9.792;2023-10-09T16:03:24;21.95;;;6.63;;
51296;SDS011;37380;45.186;9.792;2023-10-09T16:05:54;11.02;;;5.85;;
51296;SDS011;37380;45.186;9.792;2023-10-09T16:08:32;30.45;;;7.18;;
51296;SDS011;37380;45.186;9.792;2023-10-09T16:11:26;25.80;;;6.63;;